| Date | Time | Temp. (oF) | Dew Point (oF) | Rel. Hum. (%) | Press. (in.) | Wind Dir. (deg.) | Wind Speed (mph) | Hourly Rainfall (i n.) |
|
|---|---|---|---|---|---|---|---|---|---|
| 1 | 05/25 | 24:00 | 55 | 43 | 66 | 29.84 | 230 | 0 | 0.00 |
| 2 | 05/24 | 23:00 | 56 | 42 | 60 | 29.84 | 270 | 9 | 0.00 |
| 3 | 05/24 | 22:00 | 57 | 43 | 61 | 29.82 | 290 | 0 | 0.00 |
| 4 | 05/24 | 21:00 | 58 | 44 | 60 | 29.78 | 270 | 1 | 0.00 |
| 5 | 05/24 | 20:00 | 60 | 42 | 53 | 29.74 | 330 | 4 | 0.00 |
| 6 | 05/24 | 19:00 | 64 | 46 | 53 | 29.71 | 320 | 12 | 0.00 |
| 7 | 05/24 | 18:00 | 67 | 48 | 52 | 29.71 | 310 | 10 | 0.00 |
| 8 | 05/24 | 17:00 | 68 | 49 | 51 | 29.67 | 300 | 17 | 0.00 |
| 9 | 05/24 | 16:00 | 68 | 57 | 68 | 29.61 | 170 | 10 | 0.00 |
| 10 | 05/24 | 15:00 | 66 | 57 | 75 | 29.57 | 140 | 1 | 0.08 |
| 11 | 05/24 | 14:00 | 72 | 58 | 63 | 29.58 | 290 | 6 | 0.00 |
| 12 | 05/24 | 13:00 | 70 | 61 | 74 | 29.60 | 270 | 7 | 0.00 |
| 13 | 05/24 | 12:00 | 70 | 65 | 87 | 29.59 | 290 | 4 | 0.02 |
| 14 | 05/24 | 11:00 | 67 | 63 | 90 | 29.62 | 200 | 10 | 0.00 |
| 15 | 05/24 | 10:00 | 65 | 63 | 96 | 29.60 | 140 | 4 | 0.04 |
| 16 | 05/24 | 09:00 | 62 | 59 | 93 | 29.66 | 130 | 2 | 0.17 |
| 17 | 05/24 | 08:00 | 62 | 59 | 93 | 29.67 | 190 | 0 | 0.01 |
| 18 | 05/24 | 07:00 | 60 | 57 | 93 | 29.73 | 330 | 0 | 0.00 |
| 19 | 05/24 | 06:00 | 59 | 56 | 92 | 29.79 | 330 | 0 | 0.00 |
| 20 | 05/24 | 05:00 | 58 | 55 | 91 | 29.81 | 330 | 0 | 0.00 |
| 21 | 05/24 | 04:00 | 58 | 55 | 90 | 29.84 | 330 | 0 | 0.00 |
| 22 | 05/24 | 03:00 | 59 | 56 | 90 | 29.88 | 330 | 0 | 0.00 |
| 23 | 05/24 | 02:00 | 60 | 57 | 90 | 29.90 | 330 | 0 | 0.00 |
| 24 | 05/24 | 01:00 | 61 | 57 | 88 | 29.91 | 330 | 0 | 0.00 |